createdAt,value
2022-08-03T00:00:48.902Z,19.86
2022-08-03T00:03:18.588Z,19.90
2022-08-03T00:06:04.808Z,19.90
2022-08-03T00:08:40.100Z,19.92
2022-08-03T00:11:10.163Z,19.92
2022-08-03T00:13:39.817Z,19.92
2022-08-03T00:16:13.321Z,19.93
2022-08-03T00:18:43.352Z,19.92
2022-08-03T00:21:12.948Z,19.94
2022-08-03T00:23:51.751Z,19.96
2022-08-03T00:26:22.286Z,19.95
2022-08-03T00:28:52.144Z,19.92
2022-08-03T00:31:39.915Z,19.88
2022-08-03T00:34:14.004Z,19.81
2022-08-03T00:36:43.616Z,19.72
2022-08-03T00:39:13.189Z,19.65
2022-08-03T00:41:42.785Z,19.57
2022-08-03T00:44:12.423Z,19.54
2022-08-03T00:46:44.604Z,19.52
2022-08-03T00:49:14.263Z,19.50
2022-08-03T00:51:43.870Z,19.45
2022-08-03T00:54:13.586Z,19.42
2022-08-03T00:56:59.804Z,19.39
2022-08-03T00:59:30.388Z,19.35
2022-08-03T01:02:02.704Z,19.30
2022-08-03T01:04:32.316Z,19.24
2022-08-03T01:07:11.145Z,19.20
2022-08-03T01:09:45.949Z,19.15
2022-08-03T01:12:19.714Z,19.09
2022-08-03T01:14:53.525Z,19.04
2022-08-03T01:17:26.202Z,19.00
2022-08-03T01:20:00.543Z,18.97
2022-08-03T01:22:58.959Z,18.98
2022-08-03T01:25:37.528Z,18.96
2022-08-03T01:28:18.060Z,18.93
2022-08-03T01:30:51.819Z,18.91
2022-08-03T01:33:25.485Z,18.87
2022-08-03T01:35:58.171Z,18.81
2022-08-03T01:38:31.938Z,18.76
2022-08-03T01:41:06.242Z,18.70
2022-08-03T01:44:27.263Z,18.66
2022-08-03T01:46:29.447Z,18.62
2022-08-03T01:49:00.195Z,18.57
2022-08-03T01:52:03.246Z,18.55
2022-08-03T01:54:22.037Z,18.52
2022-08-03T01:56:52.412Z,18.50
2022-08-03T01:59:22.385Z,18.49
2022-08-03T02:02:28.592Z,18.47
2022-08-03T02:04:45.824Z,18.47
2022-08-03T02:07:15.890Z,18.47
2022-08-03T02:09:47.289Z,18.46
2022-08-03T02:12:18.160Z,18.44
2022-08-03T02:14:49.741Z,18.43
2022-08-03T02:17:39.434Z,18.42
2022-08-03T02:20:10.945Z,18.43
2022-08-03T02:22:42.831Z,18.47
2022-08-03T02:25:15.676Z,18.48
2022-08-03T02:27:50.651Z,18.50
2022-08-03T02:30:21.047Z,18.51
2022-08-03T02:32:57.579Z,18.53
2022-08-03T02:35:29.682Z,18.55
2022-08-03T02:38:02.927Z,18.57
2022-08-03T02:40:33.587Z,18.53
2022-08-03T02:43:05.684Z,18.52
2022-08-03T02:45:36.033Z,18.48
2022-08-03T02:48:09.851Z,18.44
2022-08-03T02:50:39.944Z,18.39
2022-08-03T02:53:10.095Z,18.35
2022-08-03T02:55:43.117Z,18.33
2022-08-03T02:58:16.388Z,18.32
2022-08-03T03:00:47.143Z,18.32
2022-08-03T03:03:19.367Z,18.35
2022-08-03T03:05:54.490Z,18.36
2022-08-03T03:08:28.375Z,18.33
2022-08-03T03:10:59.539Z,18.31
2022-08-03T03:13:30.580Z,18.25
2022-08-03T03:16:02.748Z,18.19
2022-08-03T03:18:36.267Z,18.16
2022-08-03T03:21:06.960Z,18.12
2022-08-03T03:23:37.973Z,18.09
2022-08-03T03:26:08.230Z,18.07
2022-08-03T03:28:39.743Z,18.06
2022-08-03T03:31:09.811Z,18.04
2022-08-03T03:33:42.215Z,18.03
2022-08-03T03:36:12.832Z,18.06
2022-08-03T03:38:42.408Z,18.12
2022-08-03T03:41:13.127Z,18.17
2022-08-03T03:43:42.805Z,18.19
2022-08-03T03:46:15.344Z,18.20
2022-08-03T03:48:47.935Z,18.21
2022-08-03T03:51:18.043Z,18.23
2022-08-03T03:53:58.876Z,18.25
2022-08-03T03:56:29.099Z,18.24
2022-08-03T03:58:59.024Z,18.25
2022-08-03T04:01:28.610Z,18.28
2022-08-03T04:04:20.739Z,18.33
2022-08-03T04:07:02.981Z,18.38
2022-08-03T04:09:45.477Z,18.42
2022-08-03T04:12:15.354Z,18.44
2022-08-03T04:14:45.432Z,18.47
2022-08-03T04:17:15.751Z,18.50
2022-08-03T04:19:51.411Z,18.51
2022-08-03T04:22:22.602Z,18.53
2022-08-03T04:24:56.264Z,18.56
2022-08-03T04:27:29.096Z,18.59
2022-08-03T04:29:59.955Z,18.64
2022-08-03T04:32:29.913Z,18.67
2022-08-03T04:35:02.194Z,18.68
2022-08-03T04:37:37.751Z,18.71
2022-08-03T04:40:11.635Z,18.73
2022-08-03T04:42:40.995Z,18.76
2022-08-03T04:45:11.553Z,18.77
2022-08-03T04:47:41.765Z,18.80
2022-08-03T04:50:19.426Z,18.85
2022-08-03T04:53:06.549Z,18.93
2022-08-03T04:55:37.751Z,19.02
2022-08-03T04:58:07.552Z,19.14
2022-08-03T05:00:37.318Z,19.23
2022-08-03T05:03:23.612Z,19.36
2022-08-03T05:06:09.773Z,19.51
2022-08-03T05:08:46.286Z,19.64
2022-08-03T05:11:16.872Z,19.75
2022-08-03T05:13:47.559Z,19.87
2022-08-03T05:16:17.600Z,19.98
2022-08-03T05:18:47.655Z,20.08
2022-08-03T05:21:19.824Z,20.15
2022-08-03T05:23:49.376Z,20.23
2022-08-03T05:26:18.949Z,20.29
2022-08-03T05:28:50.807Z,20.32
2022-08-03T05:31:21.599Z,20.38
2022-08-03T05:33:51.583Z,20.44
2022-08-03T05:36:23.791Z,20.52
2022-08-03T05:38:53.812Z,20.60
2022-08-03T05:41:36.602Z,20.69
2022-08-03T05:44:07.662Z,20.75
2022-08-03T05:46:37.281Z,20.82
2022-08-03T05:49:07.366Z,20.88
2022-08-03T05:51:39.895Z,20.94
2022-08-03T05:54:09.513Z,21.00
2022-08-03T05:56:40.997Z,21.07
2022-08-03T05:59:35.706Z,21.15
2022-08-03T06:02:00.211Z,21.24
2022-08-03T06:04:29.883Z,21.32
2022-08-03T06:07:02.034Z,21.41
2022-08-03T06:10:33.196Z,21.50
2022-08-03T06:12:22.019Z,21.63
2022-08-03T06:14:51.560Z,21.74
2022-08-03T06:17:21.188Z,21.87
2022-08-03T06:19:50.880Z,21.98
2022-08-03T06:22:24.375Z,22.11
2022-08-03T06:24:56.862Z,22.28
2022-08-03T06:27:36.440Z,22.56
2022-08-03T06:30:07.254Z,22.96
2022-08-03T06:32:36.820Z,23.42
2022-08-03T06:35:06.990Z,24.31
2022-08-03T06:37:48.209Z,25.49
2022-08-03T06:40:24.433Z,26.86
2022-08-03T06:42:54.316Z,28.36
2022-08-03T06:45:24.059Z,29.57
2022-08-03T06:48:03.367Z,30.28
2022-08-03T06:50:33.262Z,30.86
2022-08-03T06:53:05.990Z,31.51
2022-08-03T06:55:35.737Z,32.31
2022-08-03T06:58:12.032Z,33.03
2022-08-03T07:00:41.639Z,33.60
2022-08-03T07:03:11.197Z,33.93
2022-08-03T07:05:41.321Z,34.47
2022-08-03T07:08:13.526Z,35.07
2022-08-03T07:10:43.189Z,35.64
2022-08-03T07:13:12.868Z,36.18
2022-08-03T07:15:55.617Z,36.47
2022-08-03T07:18:29.518Z,36.79
2022-08-03T07:20:59.638Z,37.29
2022-08-03T07:23:31.780Z,37.76
2022-08-03T07:26:01.375Z,38.19
2022-08-03T07:28:30.963Z,38.51
2022-08-03T07:31:00.539Z,38.97
2022-08-03T07:33:30.180Z,39.41
2022-08-03T07:35:59.760Z,39.95
2022-08-03T07:38:32.562Z,40.58
2022-08-03T07:41:02.193Z,41.27
2022-08-03T07:43:31.809Z,41.83
2022-08-03T07:46:01.421Z,42.24
2022-08-03T07:48:31.097Z,42.56
2022-08-03T07:51:00.712Z,42.52
2022-08-03T07:53:32.965Z,41.74
2022-08-03T07:56:11.414Z,41.10
2022-08-03T07:58:41.152Z,40.81
2022-08-03T08:01:10.912Z,40.80
2022-08-03T08:03:53.205Z,40.86
2022-08-03T08:06:24.069Z,40.89
2022-08-03T08:08:59.674Z,41.00
2022-08-03T08:11:29.290Z,41.44
2022-08-03T08:14:02.473Z,41.53
2022-08-03T08:16:32.199Z,41.49
2022-08-03T08:19:02.096Z,41.56
2022-08-03T08:21:53.495Z,41.27
2022-08-03T08:24:24.105Z,41.43
2022-08-03T08:26:54.329Z,41.85
2022-08-03T08:29:24.106Z,42.26
2022-08-03T08:31:53.663Z,42.26
2022-08-03T08:34:23.235Z,42.43
2022-08-03T08:36:52.827Z,42.89
2022-08-03T08:39:24.989Z,43.44
2022-08-03T08:41:54.435Z,43.95
2022-08-03T08:44:24.030Z,44.15
2022-08-03T08:46:56.402Z,44.09
2022-08-03T08:49:30.641Z,43.72
2022-08-03T08:52:01.625Z,43.71
2022-08-03T08:54:35.219Z,44.20
2022-08-03T08:57:16.463Z,44.67
2022-08-03T08:59:57.418Z,44.95
2022-08-03T09:02:27.418Z,45.23
2022-08-03T09:04:57.015Z,45.42
2022-08-03T09:07:26.641Z,45.11
2022-08-03T09:10:08.397Z,45.03
2022-08-03T09:12:45.189Z,45.33
2022-08-03T09:15:20.236Z,45.49
2022-08-03T09:17:51.338Z,45.75
2022-08-03T09:20:22.147Z,46.07
2022-08-03T09:22:56.690Z,46.43
2022-08-03T09:25:39.809Z,46.95
2022-08-03T09:28:12.277Z,47.17
2022-08-03T09:30:43.637Z,47.37
2022-08-03T09:33:16.374Z,47.56
2022-08-03T09:35:55.274Z,47.76
2022-08-03T09:38:28.747Z,47.60
2022-08-03T09:41:01.169Z,47.45
2022-08-03T09:43:30.920Z,47.29
2022-08-03T09:46:07.685Z,47.48
2022-08-03T09:48:37.895Z,47.70
2022-08-03T09:51:13.014Z,47.74
2022-08-03T09:53:58.949Z,47.60
2022-08-03T09:56:44.040Z,47.46
2022-08-03T09:59:14.625Z,47.42
2022-08-03T10:01:44.398Z,47.20
2022-08-03T10:04:18.584Z,46.91
2022-08-03T10:06:49.404Z,46.20
2022-08-03T10:09:19.736Z,45.56
2022-08-03T10:11:51.921Z,45.28
2022-08-03T10:14:22.627Z,44.86
2022-08-03T10:16:52.439Z,44.12
2022-08-03T10:19:21.996Z,43.19
2022-08-03T10:21:54.009Z,42.01
2022-08-03T10:24:29.371Z,40.81
2022-08-03T10:27:05.575Z,39.56
2022-08-03T10:29:40.265Z,38.46
2022-08-03T10:32:14.671Z,37.50
2022-08-03T10:34:45.769Z,36.72
2022-08-03T10:37:17.945Z,36.11
2022-08-03T10:39:57.410Z,35.62
2022-08-03T10:42:31.461Z,35.13
2022-08-03T10:45:07.360Z,34.65
2022-08-03T10:47:38.169Z,34.27
2022-08-03T10:50:08.952Z,33.98
2022-08-03T10:52:41.699Z,33.75
2022-08-03T10:55:45.626Z,33.62
2022-08-03T10:58:30.482Z,33.50
2022-08-03T11:01:00.549Z,33.38
2022-08-03T11:03:30.280Z,33.28
2022-08-03T11:06:19.036Z,33.17
2022-08-03T11:08:48.956Z,33.08
2022-08-03T11:11:28.698Z,32.98
2022-08-03T11:14:08.067Z,32.87
2022-08-03T11:16:39.001Z,32.76
2022-08-03T11:19:13.271Z,32.66
2022-08-03T11:21:58.467Z,32.59
2022-08-03T11:24:58.136Z,32.55
2022-08-03T11:27:29.630Z,32.53
2022-08-03T11:30:04.357Z,32.51
2022-08-03T11:32:56.325Z,32.50
2022-08-03T11:35:27.320Z,32.53
2022-08-03T11:38:08.017Z,32.56
2022-08-03T11:40:39.669Z,32.52
2022-08-03T11:43:11.049Z,32.46
2022-08-03T11:45:59.559Z,32.43
2022-08-03T11:48:31.148Z,32.44
2022-08-03T11:51:02.932Z,32.46
2022-08-03T11:53:32.589Z,32.48
2022-08-03T11:56:13.057Z,32.48
2022-08-03T11:59:17.275Z,32.48
2022-08-03T12:01:41.966Z,32.50
2022-08-03T12:04:11.809Z,32.48
2022-08-03T12:06:53.647Z,32.43
2022-08-03T12:09:23.454Z,32.40
2022-08-03T12:12:00.501Z,32.39
2022-08-03T12:14:49.496Z,32.38
2022-08-03T12:17:23.553Z,32.36
2022-08-03T12:19:53.159Z,32.38
2022-08-03T12:22:34.316Z,32.38
2022-08-03T12:25:03.993Z,32.39
2022-08-03T12:27:33.577Z,32.38
2022-08-03T12:30:03.819Z,32.36
2022-08-03T12:32:35.995Z,32.34
2022-08-03T12:35:06.020Z,32.31
2022-08-03T12:37:36.014Z,32.28
2022-08-03T12:40:13.260Z,32.28
2022-08-03T12:42:44.855Z,32.27
2022-08-03T12:45:25.315Z,32.32
2022-08-03T12:47:59.947Z,32.35
2022-08-03T12:50:32.137Z,32.33
2022-08-03T12:53:02.720Z,32.31
2022-08-03T12:55:57.268Z,32.32
2022-08-03T12:58:33.637Z,32.35
2022-08-03T13:01:05.132Z,32.34
2022-08-03T13:03:50.480Z,32.33
2022-08-03T13:06:25.079Z,32.35
2022-08-03T13:09:05.491Z,32.37
2022-08-03T13:11:55.837Z,32.39
2022-08-03T13:14:25.052Z,32.41
2022-08-03T13:16:54.625Z,32.39
2022-08-03T13:19:26.784Z,32.38
2022-08-03T13:22:03.920Z,32.40
2022-08-03T13:24:34.962Z,32.42
2022-08-03T13:28:04.291Z,32.39
2022-08-03T13:29:56.825Z,32.33
2022-08-03T13:32:26.732Z,32.25
2022-08-03T13:34:58.963Z,32.13
2022-08-03T13:37:28.540Z,32.03
2022-08-03T13:40:02.250Z,31.91
2022-08-03T13:42:33.445Z,31.78
2022-08-03T13:45:03.463Z,31.72
2022-08-03T13:47:33.067Z,31.72
2022-08-03T13:50:05.814Z,31.80
2022-08-03T13:52:36.822Z,31.88
2022-08-03T13:55:08.047Z,31.95
2022-08-03T13:58:04.320Z,32.00
2022-08-03T14:00:29.563Z,32.01
2022-08-03T14:03:16.131Z,32.00
2022-08-03T14:05:48.389Z,32.02
2022-08-03T14:08:18.320Z,32.05
2022-08-03T14:10:48.499Z,32.11
2022-08-03T14:13:18.372Z,32.19
2022-08-03T14:15:51.897Z,32.27
2022-08-03T14:18:29.253Z,32.33
2022-08-03T14:21:07.581Z,32.38
2022-08-03T14:23:38.493Z,32.40
2022-08-03T14:26:08.528Z,32.43
2022-08-03T14:28:38.781Z,32.49
2022-08-03T14:32:09.287Z,32.53
2022-08-03T14:33:57.963Z,32.54
2022-08-03T14:36:30.208Z,32.58
2022-08-03T14:39:01.501Z,32.64
2022-08-03T14:41:31.329Z,32.72
2022-08-03T14:44:02.093Z,32.78
2022-08-03T14:46:32.835Z,32.82
2022-08-03T14:50:38.923Z,32.86
2022-08-03T14:51:55.115Z,32.87
2022-08-03T14:54:25.125Z,32.89
2022-08-03T14:56:54.801Z,32.89
2022-08-03T14:59:24.447Z,32.88
2022-08-03T15:02:03.313Z,32.86
2022-08-03T15:04:37.004Z,32.85
2022-08-03T15:07:09.411Z,32.83
2022-08-03T15:09:39.117Z,32.84
2022-08-03T15:12:09.090Z,32.83
2022-08-03T15:14:38.774Z,32.79
2022-08-03T15:17:08.711Z,32.74
2022-08-03T15:20:01.029Z,32.67
2022-08-03T15:22:34.912Z,32.60
2022-08-03T15:26:02.279Z,32.58
2022-08-03T15:28:04.318Z,32.60
2022-08-03T15:30:36.968Z,32.62
2022-08-03T15:33:06.835Z,32.63
2022-08-03T15:35:36.505Z,32.56
2022-08-03T15:38:09.791Z,32.44
2022-08-03T15:40:39.614Z,32.32
2022-08-03T15:43:09.501Z,32.20
2022-08-03T15:45:40.659Z,32.11
2022-08-03T15:48:11.927Z,32.06
2022-08-03T15:50:41.655Z,32.04
2022-08-03T15:53:15.892Z,32.07
2022-08-03T15:55:45.480Z,32.13
2022-08-03T15:59:09.822Z,32.19
2022-08-03T16:01:05.403Z,32.25
2022-08-03T16:03:36.890Z,32.29
2022-08-03T16:06:07.815Z,32.34
2022-08-03T16:08:39.981Z,32.38
2022-08-03T16:11:09.627Z,32.42
2022-08-03T16:14:13.873Z,32.44
2022-08-03T16:16:29.061Z,32.44
2022-08-03T16:18:58.741Z,32.42
2022-08-03T16:21:48.567Z,32.34
2022-08-03T16:24:27.951Z,32.24
2022-08-03T16:26:58.403Z,32.15
2022-08-03T16:29:31.282Z,32.06
2022-08-03T16:32:12.153Z,31.97
2022-08-03T16:34:42.257Z,31.85
2022-08-03T16:37:36.995Z,31.77
2022-08-03T16:40:04.483Z,31.74
2022-08-03T16:42:34.055Z,31.72
2022-08-03T16:45:03.712Z,31.70
2022-08-03T16:47:33.370Z,31.66
2022-08-03T16:50:08.976Z,31.62
2022-08-03T16:52:42.675Z,31.57
2022-08-03T16:55:51.970Z,31.54
2022-08-03T16:58:12.550Z,31.50
2022-08-03T17:00:43.115Z,31.44
2022-08-03T17:03:20.499Z,31.35
2022-08-03T17:05:51.246Z,31.22
2022-08-03T17:08:26.889Z,31.08
2022-08-03T17:10:59.876Z,30.91
2022-08-03T17:13:39.877Z,30.75
2022-08-03T17:16:15.215Z,30.60
2022-08-03T17:18:50.475Z,30.50
2022-08-03T17:21:21.167Z,30.45
2022-08-03T17:23:56.611Z,30.40
2022-08-03T17:26:30.591Z,30.37
2022-08-03T17:29:11.230Z,30.34
2022-08-03T17:31:49.569Z,30.30
2022-08-03T17:34:20.022Z,30.26
2022-08-03T17:37:06.206Z,30.20
2022-08-03T17:39:57.670Z,30.16
2022-08-03T17:42:31.893Z,30.10
2022-08-03T17:45:03.977Z,30.05
2022-08-03T17:47:41.886Z,29.98
2022-08-03T17:50:25.351Z,29.92
2022-08-03T17:53:07.390Z,29.83
2022-08-03T17:55:57.226Z,29.76
2022-08-03T17:58:41.997Z,29.70
2022-08-03T18:02:00.316Z,29.64
2022-08-03T18:04:30.075Z,29.58
2022-08-03T18:07:11.618Z,29.51
2022-08-03T18:10:03.484Z,29.45
2022-08-03T18:12:37.929Z,29.38
2022-08-03T18:15:21.462Z,29.34
2022-08-03T18:18:01.928Z,29.28
2022-08-03T18:20:41.033Z,29.21
2022-08-03T18:23:20.367Z,29.15
2022-08-03T18:25:59.063Z,29.09
2022-08-03T18:28:29.856Z,29.00
2022-08-03T18:31:04.511Z,28.92
2022-08-03T18:34:17.132Z,28.81
2022-08-03T18:36:30.208Z,28.70
2022-08-03T18:39:02.415Z,28.58
2022-08-03T18:41:34.593Z,28.44
2022-08-03T18:44:06.710Z,28.36
2022-08-03T18:46:49.929Z,28.26
2022-08-03T18:49:30.276Z,28.17
2022-08-03T18:52:12.439Z,28.10
2022-08-03T18:55:02.309Z,28.00
2022-08-03T18:57:46.409Z,27.90
2022-08-03T19:00:23.959Z,27.81
2022-08-03T19:03:12.202Z,27.69
2022-08-03T19:06:02.386Z,27.59
2022-08-03T19:08:42.360Z,27.48
2022-08-03T19:11:14.204Z,27.42
2022-08-03T19:13:50.355Z,27.37
2022-08-03T19:16:24.879Z,27.32
2022-08-03T19:18:59.341Z,27.28
2022-08-03T19:21:30.089Z,27.22
2022-08-03T19:24:05.577Z,27.14
2022-08-03T19:26:41.359Z,27.07
2022-08-03T19:29:14.990Z,27.00
2022-08-03T19:31:58.706Z,26.92
2022-08-03T19:34:38.737Z,26.82
2022-08-03T19:37:17.150Z,26.77
2022-08-03T19:39:56.646Z,26.72
2022-08-03T19:42:32.977Z,26.65
2022-08-03T19:45:11.402Z,26.58
2022-08-03T19:47:47.971Z,26.49
2022-08-03T19:50:22.354Z,26.39
2022-08-03T19:52:52.800Z,26.31
2022-08-03T19:55:22.596Z,26.25
2022-08-03T19:57:57.204Z,26.18
2022-08-03T20:00:34.066Z,26.13
2022-08-03T20:03:18.247Z,26.07
2022-08-03T20:05:55.037Z,26.02
2022-08-03T20:08:24.860Z,25.98
2022-08-03T20:10:54.682Z,25.93
2022-08-03T20:13:28.373Z,25.90
2022-08-03T20:15:58.018Z,25.84
2022-08-03T20:18:27.674Z,25.82
2022-08-03T20:21:04.313Z,25.82
2022-08-03T20:24:03.199Z,25.81
2022-08-03T20:26:35.489Z,25.80
2022-08-03T20:29:10.233Z,25.77
2022-08-03T20:31:40.131Z,25.72
2022-08-03T20:34:09.916Z,25.67
2022-08-03T20:36:42.353Z,25.64
2022-08-03T20:39:11.996Z,25.63
2022-08-03T20:41:43.378Z,25.61
2022-08-03T20:44:13.074Z,25.57
2022-08-03T20:46:50.353Z,25.54
2022-08-03T20:49:26.633Z,25.53
2022-08-03T20:51:58.806Z,25.51
2022-08-03T20:54:31.584Z,25.49
2022-08-03T20:57:03.612Z,25.46
2022-08-03T20:59:50.434Z,25.45
2022-08-03T21:02:30.458Z,25.41
2022-08-03T21:05:03.265Z,25.37
2022-08-03T21:08:04.320Z,25.32
2022-08-03T21:10:38.209Z,25.25
2022-08-03T21:16:03.334Z,25.04
2022-08-03T21:18:46.187Z,24.96
2022-08-03T21:21:18.414Z,24.94
2022-08-03T21:23:53.015Z,24.94
2022-08-03T21:26:24.400Z,24.93
2022-08-03T21:28:56.013Z,24.92
2022-08-03T21:31:27.077Z,24.87
2022-08-03T21:33:58.539Z,24.84
2022-08-03T21:36:29.892Z,24.83
2022-08-03T21:39:02.751Z,24.88
2022-08-03T21:41:34.453Z,24.95
2022-08-03T21:44:05.362Z,24.99
2022-08-03T21:46:38.007Z,25.03
2022-08-03T21:50:07.620Z,25.03
2022-08-03T21:52:00.628Z,25.02
2022-08-03T21:54:37.548Z,25.01
2022-08-03T21:57:09.120Z,25.00
2022-08-03T21:59:41.542Z,24.99
2022-08-03T22:02:24.250Z,24.99
2022-08-03T22:04:56.350Z,24.96
2022-08-03T22:07:27.605Z,24.92
2022-08-03T22:10:01.607Z,24.86
2022-08-03T22:12:33.439Z,24.81
2022-08-03T22:15:04.717Z,24.75
2022-08-03T22:17:55.917Z,24.70
2022-08-03T22:20:26.398Z,24.64
2022-08-03T22:22:57.974Z,24.63
2022-08-03T22:25:32.993Z,24.64
2022-08-03T22:28:05.056Z,24.65
2022-08-03T22:30:34.756Z,24.66
2022-08-03T22:33:05.214Z,24.68
2022-08-03T22:35:47.407Z,24.73
2022-08-03T22:38:18.602Z,24.75
2022-08-03T22:40:52.393Z,24.76
2022-08-03T22:43:25.709Z,24.79
2022-08-03T22:46:10.662Z,24.84
2022-08-03T22:48:42.163Z,24.86
2022-08-03T22:51:12.077Z,24.91
2022-08-03T22:53:42.043Z,24.92
2022-08-03T22:56:14.722Z,24.91
2022-08-03T22:58:44.318Z,24.90
2022-08-03T23:01:14.734Z,24.90
2022-08-03T23:03:58.608Z,24.90
2022-08-03T23:06:35.573Z,24.92
2022-08-03T23:09:07.743Z,24.93
2022-08-03T23:11:45.345Z,24.94
2022-08-03T23:14:17.578Z,24.94
2022-08-03T23:16:48.769Z,24.92
2022-08-03T23:19:25.183Z,24.89
2022-08-03T23:22:02.747Z,24.84
2022-08-03T23:24:36.455Z,24.81
2022-08-03T23:27:10.383Z,24.79
2022-08-03T23:29:41.865Z,24.74
2022-08-03T23:32:11.461Z,24.70
2022-08-03T23:34:54.872Z,24.66
2022-08-03T23:37:24.765Z,24.64
2022-08-03T23:39:55.463Z,24.63
2022-08-03T23:42:28.409Z,24.63
2022-08-03T23:45:06.032Z,24.60
2022-08-03T23:47:46.446Z,24.55
2022-08-03T23:50:17.223Z,24.49
2022-08-03T23:52:55.947Z,24.49
2022-08-03T23:55:38.648Z,24.48
2022-08-03T23:58:15.942Z,24.47
